createdAt,value
2024-02-08T00:03:09.036Z,99183.94
2024-02-08T00:08:13.400Z,99189.00
2024-02-08T00:13:15.151Z,99184.00
2024-02-08T00:18:19.654Z,99183.09
2024-02-08T00:23:21.276Z,99174.59
2024-02-08T00:28:22.820Z,99173.50
2024-02-08T00:33:26.560Z,99185.16
2024-02-08T00:38:31.307Z,99183.22
2024-02-08T00:43:32.879Z,99182.09
2024-02-08T00:48:34.465Z,99176.06
2024-02-08T00:53:35.994Z,99169.06
2024-02-08T00:58:37.497Z,99174.50
2024-02-08T01:03:39.155Z,99164.22
2024-02-08T01:08:40.710Z,99171.50
2024-02-08T01:13:42.211Z,99179.88
2024-02-08T01:18:43.714Z,99167.88
2024-02-08T01:23:47.672Z,99174.41
2024-02-08T01:28:49.314Z,99172.44
2024-02-08T01:33:51.842Z,99166.47
2024-02-08T01:38:53.462Z,99169.69
2024-02-08T01:44:03.876Z,99163.53
2024-02-08T01:49:10.635Z,99167.50
2024-02-08T01:54:13.703Z,99162.84
2024-02-08T01:59:21.017Z,99166.84
2024-02-08T02:04:23.673Z,99155.91
2024-02-08T02:09:26.059Z,99143.38
2024-02-08T02:14:30.750Z,99151.09
2024-02-08T02:19:32.727Z,99154.25
2024-02-08T02:24:43.477Z,99147.50
2024-02-08T02:29:45.898Z,99138.16
2024-02-08T02:34:51.786Z,99139.72
2024-02-08T02:39:54.166Z,99132.91
2024-02-08T02:44:56.868Z,99119.13
2024-02-08T02:49:59.195Z,99123.38
2024-02-08T02:55:01.065Z,99116.34
2024-02-08T03:00:04.337Z,99110.28
2024-02-08T03:05:08.121Z,99111.75
2024-02-08T03:10:12.841Z,99107.25
2024-02-08T03:15:14.373Z,99096.31
2024-02-08T03:20:25.268Z,99097.47
2024-02-08T03:25:27.444Z,99095.97
2024-02-08T03:30:36.134Z,99106.56
2024-02-08T03:35:39.949Z,99106.78
2024-02-08T03:40:41.751Z,99108.44
2024-02-08T03:45:48.224Z,99107.75
2024-02-08T03:50:51.881Z,99105.47
2024-02-08T03:55:53.434Z,99113.38
2024-02-08T04:00:55.699Z,99109.44
2024-02-08T04:06:01.577Z,99112.22
2024-02-08T04:11:03.135Z,99091.22
2024-02-08T04:16:23.488Z,99085.22
2024-02-08T04:21:43.596Z,99074.03
2024-02-08T04:27:03.482Z,99074.03
2024-02-08T04:32:24.026Z,99071.50
2024-02-08T04:37:44.876Z,99066.41
2024-02-08T04:43:06.340Z,99074.72
2024-02-08T04:48:26.733Z,99079.81
2024-02-08T04:53:46.485Z,99083.09
2024-02-08T04:59:08.533Z,99081.38
2024-02-08T05:04:09.843Z,99084.16
2024-02-08T05:09:17.272Z,99076.66
2024-02-08T05:14:22.193Z,99076.00
2024-02-08T05:19:25.211Z,99083.66
2024-02-08T05:24:32.097Z,99074.38
2024-02-08T05:29:34.721Z,99080.28
2024-02-08T05:34:38.150Z,99080.50
2024-02-08T05:39:39.699Z,99076.31
2024-02-08T05:44:42.376Z,99068.59
2024-02-08T05:49:50.243Z,99077.06
2024-02-08T06:00:01.744Z,99070.38
2024-02-08T06:05:11.032Z,99063.91
2024-02-08T06:10:16.841Z,99066.59
2024-02-08T06:15:34.322Z,99057.16
2024-02-08T06:20:42.554Z,99053.59
2024-02-08T06:26:10.418Z,99060.31
2024-02-08T06:31:16.286Z,99057.78
2024-02-08T06:36:24.145Z,99050.03
2024-02-08T06:41:28.522Z,99042.34
2024-02-08T06:46:49.772Z,99048.09
2024-02-08T06:52:09.857Z,99060.56
2024-02-08T06:57:30.044Z,99057.72
2024-02-08T07:02:49.857Z,99050.78
2024-02-08T07:08:09.976Z,99052.41
2024-02-08T07:13:30.169Z,99046.34
2024-02-08T07:18:55.501Z,99055.38
2024-02-08T07:24:18.744Z,99050.72
2024-02-08T07:29:40.144Z,99044.03
2024-02-08T07:35:00.913Z,99043.78
2024-02-08T07:40:03.368Z,99033.25
2024-02-08T07:45:06.530Z,99031.38
2024-02-08T07:50:10.063Z,99030.50
2024-02-08T07:55:43.788Z,99027.78
2024-02-08T08:00:45.431Z,99039.63
2024-02-08T08:05:52.381Z,99036.38
2024-02-08T08:10:58.491Z,99035.44
2024-02-08T08:16:20.057Z,99039.44
2024-02-08T08:21:27.209Z,99025.34
2024-02-08T08:26:40.589Z,99022.91
2024-02-08T08:31:53.013Z,99043.50
2024-02-08T08:37:05.356Z,99029.44
2024-02-08T08:42:07.313Z,99024.41
2024-02-08T08:47:08.959Z,99029.09
2024-02-08T08:52:24.977Z,99030.16
2024-02-08T08:57:27.029Z,99032.63
2024-02-08T09:02:30.913Z,99025.50
2024-02-08T09:07:32.713Z,99026.91
2024-02-08T09:12:41.124Z,99019.63
2024-02-08T09:17:53.459Z,99021.53
2024-02-08T09:22:58.518Z,99009.59
2024-02-08T09:28:06.599Z,99018.97
2024-02-08T09:33:15.481Z,99009.69
2024-02-08T09:38:20.233Z,99009.69
2024-02-08T09:43:26.324Z,99006.59
2024-02-08T09:48:38.341Z,99015.97
2024-02-08T09:53:53.367Z,99001.00
2024-02-08T09:59:08.836Z,99002.38
2024-02-08T10:04:21.745Z,99007.13
2024-02-08T10:09:36.534Z,99002.09
2024-02-08T10:14:43.565Z,99005.81
2024-02-08T10:20:17.113Z,98995.81
2024-02-08T10:25:37.372Z,98993.16
2024-02-08T10:30:42.673Z,98995.28
2024-02-08T10:35:48.792Z,98984.28
2024-02-08T10:40:57.159Z,98971.41
2024-02-08T10:46:04.883Z,98956.19
2024-02-08T10:51:13.357Z,98940.88
2024-02-08T10:56:18.286Z,98927.88
2024-02-08T11:01:39.229Z,98924.66
2024-02-08T11:06:55.965Z,98918.03
2024-02-08T11:12:05.063Z,98905.78
2024-02-08T11:17:12.572Z,98910.09
2024-02-08T11:22:26.099Z,98906.41
2024-02-08T11:27:35.978Z,98901.72
2024-02-08T11:32:38.971Z,98894.78
2024-02-08T11:37:40.800Z,98888.16
2024-02-08T11:42:43.313Z,98893.31
2024-02-08T11:47:50.334Z,98886.66
2024-02-08T11:53:05.881Z,98872.84
2024-02-08T11:58:07.619Z,98874.34
2024-02-08T12:03:11.353Z,98871.25
2024-02-08T12:08:14.573Z,98859.78
2024-02-08T12:13:17.429Z,98851.84
2024-02-08T12:18:20.212Z,98846.50
2024-02-08T12:23:25.242Z,98831.28
2024-02-08T12:28:27.115Z,98839.03
2024-02-08T12:33:30.485Z,98822.41
2024-02-08T12:38:32.344Z,98820.97
2024-02-08T12:43:35.384Z,98822.06
2024-02-08T12:48:37.350Z,98823.31
2024-02-08T12:53:40.344Z,98807.13
2024-02-08T12:58:42.247Z,98798.03
2024-02-08T13:03:43.803Z,98791.91
2024-02-08T13:08:47.012Z,98777.88
2024-02-08T13:13:49.607Z,98782.09
2024-02-08T13:18:56.022Z,98774.78
2024-02-08T13:23:58.058Z,98784.09
2024-02-08T13:29:01.179Z,98773.25
2024-02-08T13:34:03.221Z,98780.44
2024-02-08T13:39:05.150Z,98767.94
2024-02-08T13:44:06.797Z,98767.59
2024-02-08T13:49:09.020Z,98752.47
2024-02-08T13:54:13.886Z,98745.84
2024-02-08T13:59:16.002Z,98749.59
2024-02-08T14:04:22.329Z,98738.06
2024-02-08T14:09:26.939Z,98754.88
2024-02-08T14:14:32.841Z,98747.41
2024-02-08T14:19:38.048Z,98743.72
2024-02-08T14:24:40.581Z,98748.03
2024-02-08T14:29:42.214Z,98731.97
2024-02-08T14:34:44.993Z,98736.38
2024-02-08T14:39:46.544Z,98714.53
2024-02-08T14:44:55.132Z,98703.97
2024-02-08T14:49:57.758Z,98683.72
2024-02-08T14:55:00.682Z,98673.78
2024-02-08T15:00:22.200Z,98675.38
2024-02-08T15:05:41.967Z,98654.69
2024-02-08T15:10:46.634Z,98658.88
2024-02-08T15:15:51.681Z,98640.84
2024-02-08T15:20:57.812Z,98623.53
2024-02-08T15:26:04.791Z,98637.63
2024-02-08T15:31:39.165Z,98635.19
2024-02-08T15:36:52.102Z,98625.84
2024-02-08T15:42:02.717Z,98630.50
2024-02-08T15:47:16.516Z,98624.69
2024-02-08T15:52:23.512Z,98612.94
2024-02-08T15:57:34.294Z,98598.94
2024-02-08T16:02:37.176Z,98595.78
2024-02-08T16:07:43.486Z,98603.00
2024-02-08T16:12:48.439Z,98590.31
2024-02-08T16:18:01.594Z,98580.78
2024-02-08T16:23:14.517Z,98575.84
2024-02-08T16:28:24.364Z,98564.88
2024-02-08T16:33:56.156Z,98561.50
2024-02-08T16:39:13.587Z,98559.28
2024-02-08T16:44:15.641Z,98543.69
2024-02-08T16:49:17.405Z,98553.97
2024-02-08T16:54:25.056Z,98547.00
2024-02-08T16:59:46.359Z,98556.66
2024-02-08T17:04:51.478Z,98547.81
2024-02-08T17:09:59.509Z,98544.22
2024-02-08T17:15:21.206Z,98535.84
2024-02-08T17:20:39.178Z,98534.00
2024-02-08T17:25:44.016Z,98525.75
2024-02-08T17:31:04.314Z,98528.78
2024-02-08T17:36:15.423Z,98527.72
2024-02-08T17:41:19.553Z,98520.25
2024-02-08T17:46:22.120Z,98523.75
2024-02-08T17:51:39.038Z,98518.84
2024-02-08T17:56:46.553Z,98504.53
2024-02-08T18:02:14.879Z,98503.34
2024-02-08T18:07:20.340Z,98507.28
2024-02-08T18:12:23.132Z,98504.22
2024-02-08T18:17:27.914Z,98503.53
2024-02-08T18:22:31.504Z,98493.53
2024-02-08T18:27:34.716Z,98489.56
2024-02-08T18:32:37.909Z,98477.94
2024-02-08T18:37:39.557Z,98478.06
2024-02-08T18:42:42.114Z,98470.03
2024-02-08T18:47:50.967Z,98469.56
2024-02-08T18:52:53.743Z,98466.72
2024-02-08T18:57:55.993Z,98461.25
2024-02-08T19:03:02.419Z,98468.41
2024-02-08T19:08:05.879Z,98463.72
2024-02-08T19:13:10.665Z,98462.91
2024-02-08T19:18:16.070Z,98461.06
2024-02-08T19:23:17.745Z,98450.53
2024-02-08T19:28:23.254Z,98435.91
2024-02-08T19:33:25.271Z,98397.47
2024-02-08T19:38:27.356Z,98429.47
2024-02-08T19:43:36.288Z,98406.66
2024-02-08T19:48:42.484Z,98408.03
2024-02-08T19:53:44.769Z,98396.28
2024-02-08T19:58:48.472Z,98396.38
2024-02-08T20:03:53.574Z,98362.94
2024-02-08T20:08:58.270Z,98384.78
2024-02-08T20:14:07.549Z,98404.00
2024-02-08T20:19:10.363Z,98405.34
2024-02-08T20:24:14.922Z,98388.13
2024-02-08T20:29:18.347Z,98387.94
2024-02-08T20:34:20.934Z,98373.75
2024-02-08T20:39:23.395Z,98369.09
2024-02-08T20:44:25.418Z,98350.34
2024-02-08T20:49:29.384Z,98362.59
2024-02-08T20:54:37.560Z,98356.69
2024-02-08T20:59:41.330Z,98355.97
2024-02-08T21:04:46.837Z,98357.50
2024-02-08T21:09:51.956Z,98349.03
2024-02-08T21:14:54.218Z,98337.91
2024-02-08T21:19:55.974Z,98335.75
2024-02-08T21:24:57.628Z,98322.09
2024-02-08T21:29:59.360Z,98323.03
2024-02-08T21:35:00.935Z,98324.88
2024-02-08T21:40:02.559Z,98319.97
2024-02-08T21:45:04.355Z,98317.84
2024-02-08T21:50:08.864Z,98320.28
2024-02-08T21:55:10.976Z,98318.16
2024-02-08T22:00:13.305Z,98310.41
2024-02-08T22:05:19.913Z,98305.41
2024-02-08T22:10:21.923Z,98305.13
2024-02-08T22:15:23.575Z,98301.63
2024-02-08T22:20:25.847Z,98287.97
2024-02-08T22:25:27.476Z,98278.59
2024-02-08T22:30:29.998Z,98280.94
2024-02-08T22:35:31.869Z,98275.66
2024-02-08T22:40:37.539Z,98277.56
2024-02-08T22:45:39.403Z,98277.88
2024-02-08T22:50:42.212Z,98265.13
2024-02-08T22:55:43.848Z,98249.50
2024-02-08T23:00:51.650Z,98252.66
2024-02-08T23:05:58.392Z,98239.19
2024-02-08T23:11:00.129Z,98246.09
2024-02-08T23:16:02.203Z,98242.84
2024-02-08T23:21:07.218Z,98235.69
2024-02-08T23:26:08.946Z,98233.97
2024-02-08T23:31:10.629Z,98235.34
2024-02-08T23:36:12.492Z,98233.72
2024-02-08T23:41:17.103Z,98221.88
2024-02-08T23:46:20.677Z,98219.09
2024-02-08T23:51:23.177Z,98233.72
2024-02-08T23:56:25.279Z,98241.94
